Trilla, IL (62469)

7:51 PM CST on December 24, 2014 (GMT -0600)
Coles County Memorial | Change Station
CLOSE
Current Station
Airport
Location: Mattoon,
Elevation: 722 ft
Nearby Weather Stations

Elev 722 ft 39.47 °N, 88.27 °W | Updated 28 minutes ago

Overcast
Overcast
36 °F
Feels Like 28 °F
N
10
Wind Variable Wind from West

Today
High -- | Low -- °F
--% Chance of Precip.
Yesterday
High -- | Low -- °F
Precip. -- in
7:11 AM 4:34 PM
Waxing Crescent, 12% visible
Pressure 29.70 in
Visibility 10.0 miles
Clouds Mostly Cloudy 1500 ft
Overcast 2200 ft
Windchill 28 °F
Dew Point 34 °F
Humidity 93%
Rainfall 0.07 in
Snow Depth Not available.
UV 0 out of 12
Pollen .10 out of 12
Air Quality Not available.
Flu Activity Not available.
SPECI KMTO 250123Z AUTO 27009KT 10SM BKN015 OVC022 02/01 A2970 RMK AO2 T00220011

More Conditions Fewer Conditions

Pressure 29.70 in
Visibility 10.0 miles
Clouds Mostly Cloudy 1500 ft
Overcast 2200 ft
Windchill 28 °F
Dew Point 34 °F
Humidity 93%
Rainfall 0.07 in
Snow Depth Not available.
UV 0 out of 12
Pollen .10 out of 12
Air Quality Not available.
Flu Activity Not available.
SPECI KMTO 250123Z AUTO 27009KT 10SM BKN015 OVC022 02/01 A2970 RMK AO2 T00220011

More Conditions Fewer Conditions

10-Day Weather Forecast

Almanac

Astronomy

Dec. 24, 2014 Rise Set
Actual Time
Civil Twilight
Nautical Twilight
Astronomical Twilight
Moon
Length of Visible Light
Length of Day
Tomorrow will be .
, % of the Moon is Illuminated

Today's Extremes

State Highs State Lows

Community

WunderPhotos

Upload Photos

1,780,208 photos uploaded!

WunderBlogs® & News

Nearby

Air Quality

  Air Quality AQ Index Pollutant
Not available.

Snow Depth

Station Depth Elevation

Earthquake Activity

City Distance Mag. Time & Date
Minimum magnitude displayed is 2.5.

Coastal Water Temperatures

Place Temperature

Nearby Weather Stations